createdAt,value
2023-07-17T00:02:10.684Z,18.37
2023-07-17T00:04:38.576Z,18.19
2023-07-17T00:07:07.912Z,18.20
2023-07-17T00:09:35.556Z,18.17
2023-07-17T00:12:04.440Z,18.18
2023-07-17T00:14:32.065Z,18.10
2023-07-17T00:16:59.814Z,18.14
2023-07-17T00:19:27.513Z,18.02
2023-07-17T00:21:55.221Z,18.13
2023-07-17T00:24:24.234Z,18.07
2023-07-17T00:26:51.965Z,17.97
2023-07-17T00:29:24.765Z,18.00
2023-07-17T00:31:52.622Z,17.88
2023-07-17T00:34:20.701Z,18.02
2023-07-17T00:36:48.745Z,17.93
2023-07-17T00:39:16.631Z,17.96
2023-07-17T00:41:45.565Z,18.00
2023-07-17T00:44:13.276Z,18.04
2023-07-17T00:46:40.957Z,17.97
2023-07-17T00:49:09.059Z,17.98
2023-07-17T00:51:37.115Z,17.98
2023-07-17T00:54:04.929Z,18.05
2023-07-17T00:56:32.651Z,18.08
2023-07-17T00:59:01.877Z,17.99
2023-07-17T01:01:29.667Z,17.95
2023-07-17T01:03:58.293Z,17.87
2023-07-17T01:06:28.736Z,17.87
2023-07-17T01:08:56.498Z,17.79
2023-07-17T01:11:24.082Z,17.71
2023-07-17T01:13:52.815Z,17.67
2023-07-17T01:16:21.863Z,17.73
2023-07-17T01:18:49.691Z,17.77
2023-07-17T01:21:20.412Z,17.64
2023-07-17T01:23:49.603Z,17.56
2023-07-17T01:26:18.549Z,17.51
2023-07-17T01:28:47.297Z,17.54
2023-07-17T01:31:15.116Z,17.38
2023-07-17T01:33:42.997Z,17.31
2023-07-17T01:36:12.603Z,17.24
2023-07-17T01:38:40.237Z,17.25
2023-07-17T01:41:09.393Z,17.28
2023-07-17T01:43:37.000Z,17.15
2023-07-17T01:46:04.922Z,17.31
2023-07-17T01:48:32.818Z,17.29
2023-07-17T01:51:00.493Z,17.27
2023-07-17T01:53:28.104Z,17.15
2023-07-17T01:55:55.819Z,17.19
2023-07-17T01:58:24.833Z,17.04
2023-07-17T02:00:54.626Z,16.72
2023-07-17T02:03:22.618Z,16.86
2023-07-17T02:05:51.584Z,16.80
2023-07-17T02:08:19.254Z,16.74
2023-07-17T02:10:50.221Z,16.55
2023-07-17T02:13:17.875Z,16.54
2023-07-17T02:15:47.926Z,16.51
2023-07-17T02:18:15.771Z,16.43
2023-07-17T02:20:43.411Z,16.40
2023-07-17T02:23:11.205Z,16.34
2023-07-17T02:25:38.976Z,16.36
2023-07-17T02:28:06.585Z,16.28
2023-07-17T02:30:34.271Z,16.37
2023-07-17T02:33:04.142Z,16.33
2023-07-17T02:35:31.957Z,16.56
2023-07-17T02:37:59.632Z,16.51
2023-07-17T02:40:27.485Z,16.42
2023-07-17T02:42:55.215Z,16.29
2023-07-17T02:45:22.955Z,16.30
2023-07-17T02:47:50.631Z,16.28
2023-07-17T02:50:19.785Z,16.13
2023-07-17T02:52:47.506Z,16.13
2023-07-17T02:55:15.335Z,16.10
2023-07-17T02:57:43.156Z,16.11
2023-07-17T03:00:12.560Z,16.22
2023-07-17T03:02:41.114Z,16.02
2023-07-17T03:05:10.361Z,16.02
2023-07-17T03:07:42.235Z,15.95
2023-07-17T03:10:11.173Z,15.88
2023-07-17T03:12:38.857Z,15.93
2023-07-17T03:15:07.811Z,16.03
2023-07-17T03:17:35.629Z,15.91
2023-07-17T03:20:05.617Z,15.95
2023-07-17T03:22:33.553Z,15.91
2023-07-17T03:25:04.336Z,15.83
2023-07-17T03:27:32.011Z,15.89
2023-07-17T03:29:59.644Z,15.97
2023-07-17T03:32:27.356Z,15.93
2023-07-17T03:34:55.006Z,15.91
2023-07-17T03:37:22.638Z,16.04
2023-07-17T03:39:50.263Z,15.87
2023-07-17T03:42:19.268Z,15.90
2023-07-17T03:44:47.096Z,16.00
2023-07-17T03:47:14.870Z,15.82
2023-07-17T03:49:42.643Z,15.97
2023-07-17T03:52:10.344Z,15.92
2023-07-17T03:54:38.012Z,15.97
2023-07-17T03:57:06.090Z,15.97
2023-07-17T03:59:49.014Z,15.99
2023-07-17T04:02:16.817Z,16.06
2023-07-17T04:04:44.437Z,16.14
2023-07-17T04:07:12.414Z,16.05
2023-07-17T04:09:41.992Z,16.22
2023-07-17T04:12:10.386Z,16.35
2023-07-17T04:14:39.385Z,16.14
2023-07-17T04:17:07.438Z,16.02
2023-07-17T04:19:35.242Z,16.05
2023-07-17T04:22:02.884Z,16.20
2023-07-17T04:24:30.593Z,15.93
2023-07-17T04:26:58.401Z,16.11
2023-07-17T04:29:26.135Z,16.29
2023-07-17T04:31:55.159Z,16.41
2023-07-17T04:34:22.881Z,16.48
2023-07-17T04:36:51.496Z,16.54
2023-07-17T04:39:19.188Z,16.60
2023-07-17T04:41:46.794Z,16.54
2023-07-17T04:44:14.517Z,16.53
2023-07-17T04:46:42.207Z,16.57
2023-07-17T04:49:11.425Z,16.57
2023-07-17T04:51:39.219Z,16.58
2023-07-17T04:54:06.949Z,16.64
2023-07-17T04:56:34.597Z,16.73
2023-07-17T04:59:02.242Z,16.88
2023-07-17T05:01:30.110Z,16.90
2023-07-17T05:03:57.949Z,17.08
2023-07-17T05:06:27.149Z,17.24
2023-07-17T05:08:54.951Z,17.30
2023-07-17T05:11:22.677Z,17.38
2023-07-17T05:13:50.429Z,17.43
2023-07-17T05:16:18.136Z,17.45
2023-07-17T05:18:45.971Z,17.60
2023-07-17T05:21:13.816Z,17.73
2023-07-17T05:23:42.873Z,17.79
2023-07-17T05:26:10.539Z,17.75
2023-07-17T05:28:41.437Z,17.80
2023-07-17T05:31:09.289Z,17.78
2023-07-17T05:33:37.134Z,17.78
2023-07-17T05:36:04.969Z,17.83
2023-07-17T05:38:32.634Z,17.73
2023-07-17T05:41:01.796Z,17.91
2023-07-17T05:43:29.533Z,17.90
2023-07-17T05:45:57.482Z,18.02
2023-07-17T05:48:25.167Z,17.87
2023-07-17T05:50:52.864Z,18.03
2023-07-17T05:53:20.499Z,18.06
2023-07-17T05:55:48.534Z,18.25
2023-07-17T05:58:17.607Z,18.42
2023-07-17T06:00:46.971Z,18.49
2023-07-17T06:03:14.616Z,18.82
2023-07-17T06:05:42.273Z,19.04
2023-07-17T06:08:10.188Z,19.21
2023-07-17T06:10:37.908Z,19.19
2023-07-17T06:13:05.672Z,19.36
2023-07-17T06:15:34.758Z,19.36
2023-07-17T06:18:02.690Z,19.48
2023-07-17T06:20:30.370Z,19.28
2023-07-17T06:22:58.098Z,19.26
2023-07-17T06:25:25.927Z,19.17
2023-07-17T06:27:53.718Z,19.18
2023-07-17T06:30:21.756Z,19.28
2023-07-17T06:32:50.980Z,19.31
2023-07-17T06:35:18.894Z,19.46
2023-07-17T06:37:46.767Z,19.53
2023-07-17T06:40:16.658Z,19.73
2023-07-17T06:42:44.576Z,19.90
2023-07-17T06:45:12.586Z,19.84
2023-07-17T06:47:40.423Z,19.87
2023-07-17T06:50:10.335Z,20.10
2023-07-17T06:52:39.529Z,20.26
2023-07-17T06:55:09.405Z,20.18
2023-07-17T06:57:37.152Z,20.32
2023-07-17T07:00:06.812Z,20.34
2023-07-17T07:02:34.695Z,20.51
2023-07-17T07:05:03.315Z,20.48
2023-07-17T07:07:32.352Z,20.50
2023-07-17T07:10:00.265Z,20.47
2023-07-17T07:12:27.916Z,20.58
2023-07-17T07:14:55.726Z,20.61
2023-07-17T07:17:23.602Z,20.82
2023-07-17T07:19:52.888Z,20.85
2023-07-17T07:22:20.604Z,20.85
2023-07-17T07:24:49.622Z,21.00
2023-07-17T07:27:17.277Z,21.14
2023-07-17T07:29:45.267Z,21.14
2023-07-17T07:32:12.935Z,21.26
2023-07-17T07:34:40.679Z,21.26
2023-07-17T07:37:08.332Z,21.36
2023-07-17T07:39:36.129Z,21.39
2023-07-17T07:42:05.583Z,21.36
2023-07-17T07:44:33.259Z,21.44
2023-07-17T07:47:00.889Z,21.37
2023-07-17T07:49:28.616Z,21.49
2023-07-17T07:51:56.320Z,21.57
2023-07-17T07:54:24.097Z,21.58
2023-07-17T07:56:52.333Z,21.50
2023-07-17T07:59:21.277Z,21.75
2023-07-17T08:01:48.974Z,21.80
2023-07-17T08:04:16.951Z,21.92
2023-07-17T08:06:44.678Z,22.00
2023-07-17T08:09:12.648Z,22.07
2023-07-17T08:11:40.996Z,22.18
2023-07-17T08:14:08.734Z,22.22
2023-07-17T08:16:37.781Z,22.31
2023-07-17T08:19:05.427Z,22.38
2023-07-17T08:21:33.194Z,22.50
2023-07-17T08:24:00.837Z,22.58
2023-07-17T08:26:28.661Z,22.67
2023-07-17T08:28:56.602Z,22.67
2023-07-17T08:31:24.494Z,22.60
2023-07-17T08:33:53.946Z,22.65
2023-07-17T08:36:23.361Z,22.75
2023-07-17T08:38:51.078Z,22.68
2023-07-17T08:41:18.701Z,22.88
2023-07-17T08:43:46.820Z,23.05
2023-07-17T08:46:14.934Z,23.00
2023-07-17T08:48:44.763Z,23.06
2023-07-17T08:51:14.048Z,23.28
2023-07-17T08:53:43.157Z,23.40
2023-07-17T08:56:12.365Z,23.46
2023-07-17T08:58:41.308Z,23.63
2023-07-17T09:01:09.463Z,23.59
2023-07-17T09:03:38.102Z,23.75
2023-07-17T09:06:06.952Z,23.76
2023-07-17T09:08:35.912Z,23.98
2023-07-17T09:11:04.372Z,24.09
2023-07-17T09:13:39.381Z,23.95
2023-07-17T09:16:18.282Z,24.11
2023-07-17T09:18:46.752Z,24.31
2023-07-17T09:21:15.780Z,24.26
2023-07-17T09:23:47.329Z,24.47
2023-07-17T09:26:15.636Z,24.57
2023-07-17T09:28:50.572Z,24.64
2023-07-17T09:31:26.077Z,24.93
2023-07-17T09:33:54.045Z,25.11
2023-07-17T09:36:22.350Z,24.85
2023-07-17T09:38:55.495Z,24.92
2023-07-17T09:41:25.109Z,24.94
2023-07-17T09:43:54.215Z,25.27
2023-07-17T09:46:22.065Z,25.07
2023-07-17T09:48:51.970Z,25.08
2023-07-17T09:51:20.529Z,24.97
2023-07-17T09:53:48.850Z,24.85
2023-07-17T09:56:19.224Z,25.16
2023-07-17T09:58:47.889Z,25.24
2023-07-17T10:01:18.440Z,25.25
2023-07-17T10:03:48.368Z,25.09
2023-07-17T10:06:17.877Z,24.86
2023-07-17T10:08:47.572Z,24.99
2023-07-17T10:11:17.924Z,24.88
2023-07-17T10:13:47.144Z,24.98
2023-07-17T10:16:21.034Z,24.74
2023-07-17T10:18:50.326Z,24.62
2023-07-17T10:21:19.472Z,24.80
2023-07-17T10:23:50.927Z,25.04
2023-07-17T10:26:21.644Z,25.19
2023-07-17T10:28:51.104Z,25.24
2023-07-17T10:31:21.169Z,25.07
2023-07-17T10:33:51.576Z,25.32
2023-07-17T10:36:19.631Z,25.54
2023-07-17T10:38:52.319Z,25.98
2023-07-17T10:41:27.762Z,26.02
2023-07-17T10:44:15.976Z,26.03
2023-07-17T10:46:44.122Z,26.26
2023-07-17T10:49:13.583Z,26.39
2023-07-17T10:51:44.911Z,26.63
2023-07-17T10:54:13.213Z,26.67
2023-07-17T10:56:43.975Z,26.70
2023-07-17T10:59:11.711Z,26.62
2023-07-17T11:01:39.665Z,26.91
2023-07-17T11:04:08.768Z,27.28
2023-07-17T11:06:36.588Z,26.96
2023-07-17T11:09:04.893Z,26.80
2023-07-17T11:11:33.937Z,27.19
2023-07-17T11:14:03.067Z,26.85
2023-07-17T11:16:30.768Z,26.37
2023-07-17T11:18:58.487Z,26.26
2023-07-17T11:21:27.298Z,26.20
2023-07-17T11:23:56.506Z,26.41
2023-07-17T11:26:26.549Z,26.44
2023-07-17T11:28:55.899Z,26.55
2023-07-17T11:31:28.184Z,26.88
2023-07-17T11:33:59.861Z,26.73
2023-07-17T11:36:27.851Z,26.54
2023-07-17T11:38:58.236Z,26.67
2023-07-17T11:41:26.708Z,26.37
2023-07-17T11:43:59.053Z,26.01
2023-07-17T11:46:28.159Z,26.19
2023-07-17T11:48:56.207Z,26.41
2023-07-17T11:51:27.307Z,26.41
2023-07-17T11:53:55.935Z,26.44
2023-07-17T11:56:34.517Z,27.04
2023-07-17T11:59:02.689Z,27.03
2023-07-17T12:01:31.770Z,27.09
2023-07-17T12:04:16.740Z,27.22
2023-07-17T12:06:44.577Z,27.46
2023-07-17T12:09:12.246Z,27.66
2023-07-17T12:11:39.961Z,27.77
2023-07-17T12:14:07.627Z,27.76
2023-07-17T12:16:36.755Z,27.61
2023-07-17T12:19:05.089Z,27.70
2023-07-17T12:21:36.221Z,27.63
2023-07-17T12:24:08.824Z,27.59
2023-07-17T12:26:36.889Z,27.65
2023-07-17T12:29:05.025Z,27.35
2023-07-17T12:31:32.758Z,26.96
2023-07-17T12:34:01.825Z,27.06
2023-07-17T12:36:29.544Z,27.27
2023-07-17T12:39:12.914Z,27.49
2023-07-17T12:41:40.563Z,27.33
2023-07-17T12:44:08.228Z,27.39
2023-07-17T12:46:35.980Z,27.35
2023-07-17T12:49:04.973Z,27.26
2023-07-17T12:51:32.653Z,27.28
2023-07-17T12:54:00.321Z,27.34
2023-07-17T12:56:28.484Z,27.61
2023-07-17T12:58:56.376Z,27.60
2023-07-17T13:01:24.770Z,28.02
2023-07-17T13:03:52.740Z,28.06
2023-07-17T13:06:21.838Z,28.12
2023-07-17T13:08:49.650Z,28.14
2023-07-17T13:11:17.800Z,28.07
2023-07-17T13:13:45.718Z,27.94
2023-07-17T13:16:13.475Z,27.74
2023-07-17T13:18:41.707Z,27.34
2023-07-17T13:21:09.349Z,27.37
2023-07-17T13:23:39.351Z,27.27
2023-07-17T13:26:07.116Z,27.54
2023-07-17T13:28:35.396Z,27.32
2023-07-17T13:31:09.950Z,27.79
2023-07-17T13:33:51.033Z,27.72
2023-07-17T13:36:18.716Z,27.70
2023-07-17T13:38:47.978Z,27.31
2023-07-17T13:41:42.510Z,27.26
2023-07-17T13:44:10.651Z,27.36
2023-07-17T13:46:38.947Z,26.94
2023-07-17T13:49:06.844Z,27.26
2023-07-17T13:51:34.750Z,27.58
2023-07-17T13:54:04.875Z,27.51
2023-07-17T13:59:05.465Z,27.89
2023-07-17T14:01:34.095Z,27.77
2023-07-17T14:04:04.083Z,27.54
2023-07-17T14:06:32.041Z,27.10
2023-07-17T14:08:59.748Z,26.90
2023-07-17T14:11:30.170Z,26.95
2023-07-17T14:14:01.044Z,26.85
2023-07-17T14:16:29.175Z,27.19
2023-07-17T14:18:57.145Z,27.52
2023-07-17T14:21:24.769Z,27.41
2023-07-17T14:23:52.484Z,27.29
2023-07-17T14:26:20.451Z,27.20
2023-07-17T14:28:49.817Z,27.24
2023-07-17T14:31:17.483Z,27.28
2023-07-17T14:33:46.540Z,27.31
2023-07-17T14:36:14.295Z,27.32
2023-07-17T14:38:42.195Z,27.41
2023-07-17T14:41:09.919Z,27.76
2023-07-17T14:43:38.370Z,27.67
2023-07-17T14:46:07.702Z,27.40
2023-07-17T14:48:35.571Z,27.62
2023-07-17T14:51:03.942Z,27.75
2023-07-17T14:53:32.422Z,27.69
2023-07-17T14:56:00.134Z,27.87
2023-07-17T14:58:28.450Z,27.60
2023-07-17T15:00:56.198Z,27.48
2023-07-17T15:03:26.670Z,27.65
2023-07-17T15:05:54.601Z,27.56
2023-07-17T15:08:22.376Z,27.55
2023-07-17T15:10:50.095Z,27.78
2023-07-17T15:13:17.943Z,27.87
2023-07-17T15:15:46.027Z,27.78
2023-07-17T15:18:13.709Z,27.79
2023-07-17T15:20:43.004Z,27.67
2023-07-17T15:23:10.880Z,27.58
2023-07-17T15:25:38.566Z,27.56
2023-07-17T15:28:06.391Z,27.52
2023-07-17T15:30:34.115Z,27.62
2023-07-17T15:33:01.720Z,27.75
2023-07-17T15:35:29.556Z,27.89
2023-07-17T15:37:58.640Z,27.86
2023-07-17T15:40:26.333Z,27.75
2023-07-17T15:42:53.971Z,27.70
2023-07-17T15:45:22.854Z,27.82
2023-07-17T15:47:51.540Z,27.68
2023-07-17T15:50:19.469Z,27.52
2023-07-17T15:52:47.374Z,27.80
2023-07-17T15:55:16.464Z,27.71
2023-07-17T15:57:44.273Z,27.49
2023-07-17T16:00:12.765Z,27.49
2023-07-17T16:02:40.473Z,27.53
2023-07-17T16:05:08.929Z,27.31
2023-07-17T16:07:36.628Z,27.20
2023-07-17T16:10:04.632Z,27.37
2023-07-17T16:12:33.732Z,27.29
2023-07-17T16:15:02.354Z,27.20
2023-07-17T16:17:30.114Z,27.18
2023-07-17T16:19:57.751Z,26.87
2023-07-17T16:22:25.498Z,26.85
2023-07-17T16:24:53.246Z,26.67
2023-07-17T16:27:20.884Z,27.07
2023-07-17T16:29:49.914Z,27.12
2023-07-17T16:32:17.653Z,27.27
2023-07-17T16:34:45.328Z,27.20
2023-07-17T16:37:12.979Z,26.98
2023-07-17T16:39:40.690Z,26.82
2023-07-17T16:42:09.142Z,26.74
2023-07-17T16:44:37.609Z,26.30
2023-07-17T16:47:07.643Z,26.27
2023-07-17T16:49:35.378Z,26.22
2023-07-17T16:52:03.267Z,26.23
2023-07-17T16:54:30.898Z,25.98
2023-07-17T16:56:58.854Z,25.75
2023-07-17T16:59:26.627Z,25.82
2023-07-17T17:01:54.395Z,26.12
2023-07-17T17:04:23.487Z,26.18
2023-07-17T17:06:51.169Z,26.32
2023-07-17T17:09:20.102Z,26.51
2023-07-17T17:11:49.672Z,26.81
2023-07-17T17:14:18.526Z,26.70
2023-07-17T17:16:46.318Z,26.55
2023-07-17T17:19:14.056Z,26.55
2023-07-17T17:21:43.195Z,26.66
2023-07-17T17:24:10.804Z,26.57
2023-07-17T17:26:38.449Z,26.67
2023-07-17T17:29:06.106Z,26.47
2023-07-17T17:31:33.886Z,26.46
2023-07-17T17:34:01.589Z,26.39
2023-07-17T17:36:29.297Z,26.49
2023-07-17T17:38:58.366Z,26.45
2023-07-17T17:41:27.845Z,26.40
2023-07-17T17:43:55.546Z,26.32
2023-07-17T17:46:23.372Z,26.29
2023-07-17T17:48:51.009Z,26.17
2023-07-17T17:51:19.518Z,26.21
2023-07-17T17:53:47.318Z,26.34
2023-07-17T17:56:16.320Z,26.31
2023-07-17T17:58:44.011Z,26.30
2023-07-17T18:01:11.806Z,25.93
2023-07-17T18:03:39.554Z,25.99
2023-07-17T18:06:10.275Z,26.01
2023-07-17T18:08:38.320Z,25.79
2023-07-17T18:11:07.328Z,25.59
2023-07-17T18:13:36.400Z,25.38
2023-07-17T18:16:04.103Z,25.33
2023-07-17T18:18:31.820Z,25.27
2023-07-17T18:20:59.591Z,25.13
2023-07-17T18:23:27.295Z,24.97
2023-07-17T18:25:54.923Z,24.44
2023-07-17T18:28:22.597Z,24.56
2023-07-17T18:30:51.608Z,24.55
2023-07-17T18:33:21.375Z,24.45
2023-07-17T18:35:49.901Z,24.27
2023-07-17T18:38:17.890Z,24.12
2023-07-17T18:40:45.739Z,24.03
2023-07-17T18:43:16.077Z,24.23
2023-07-17T18:45:43.948Z,23.91
2023-07-17T18:48:13.575Z,23.81
2023-07-17T18:50:42.633Z,23.59
2023-07-17T18:53:10.382Z,23.61
2023-07-17T18:55:38.039Z,23.47
2023-07-17T18:58:06.058Z,23.45
2023-07-17T19:00:34.082Z,23.25
2023-07-17T19:03:01.781Z,23.21
2023-07-17T19:05:30.964Z,23.06
2023-07-17T19:08:04.127Z,23.06
2023-07-17T19:10:31.764Z,22.95
2023-07-17T19:12:59.414Z,22.83
2023-07-17T19:15:27.338Z,22.70
2023-07-17T19:17:54.970Z,22.65
2023-07-17T19:20:22.670Z,22.32
2023-07-17T19:22:53.083Z,22.29
2023-07-17T19:25:21.074Z,21.84
2023-07-17T19:27:49.292Z,21.87
2023-07-17T19:30:17.125Z,21.81
2023-07-17T19:32:45.024Z,21.76
2023-07-17T19:35:12.761Z,21.54
2023-07-17T19:37:40.897Z,21.49
2023-07-17T19:40:12.428Z,21.26
2023-07-17T19:42:40.071Z,21.19
2023-07-17T19:45:08.550Z,20.95
2023-07-17T19:47:36.278Z,20.80
2023-07-17T19:50:04.241Z,20.90
2023-07-17T19:52:31.874Z,20.72
2023-07-17T19:54:59.978Z,20.63
2023-07-17T19:57:29.018Z,20.55
2023-07-17T19:59:58.569Z,20.49
2023-07-17T20:02:27.922Z,20.52
2023-07-17T20:04:56.033Z,20.29
2023-07-17T20:07:23.804Z,20.31
2023-07-17T20:09:52.731Z,20.25
2023-07-17T20:12:21.365Z,20.29
2023-07-17T20:14:50.410Z,20.35
2023-07-17T20:17:21.922Z,20.25
2023-07-17T20:19:49.765Z,20.22
2023-07-17T20:22:17.394Z,20.39
2023-07-17T20:24:45.011Z,20.29
2023-07-17T20:27:12.621Z,20.11
2023-07-17T20:29:40.211Z,20.10
2023-07-17T20:32:11.435Z,20.14
2023-07-17T20:34:41.038Z,20.15
2023-07-17T20:37:09.174Z,20.10
2023-07-17T20:39:37.049Z,20.04
2023-07-17T20:42:05.780Z,20.00
2023-07-17T20:44:33.579Z,19.91
2023-07-17T20:47:01.279Z,19.93
2023-07-17T20:49:30.591Z,19.55
2023-07-17T20:51:58.503Z,19.88
2023-07-17T20:54:28.202Z,19.78
2023-07-17T20:56:57.046Z,19.78
2023-07-17T20:59:24.735Z,19.82
2023-07-17T21:01:52.465Z,19.66
2023-07-17T21:04:20.172Z,19.64
2023-07-17T21:06:49.160Z,19.67
2023-07-17T21:09:16.867Z,19.68
2023-07-17T21:11:48.013Z,19.68
2023-07-17T21:14:15.964Z,19.65
2023-07-17T21:16:45.183Z,19.65
2023-07-17T21:19:13.260Z,19.60
2023-07-17T21:21:40.907Z,19.44
2023-07-17T21:24:09.944Z,19.41
2023-07-17T21:26:37.609Z,19.41
2023-07-17T21:29:07.353Z,19.37
2023-07-17T21:31:35.228Z,19.35
2023-07-17T21:34:03.593Z,19.17
2023-07-17T21:36:31.349Z,19.09
2023-07-17T21:38:59.097Z,19.00
2023-07-17T21:41:28.693Z,19.04
2023-07-17T21:43:56.386Z,19.13
2023-07-17T21:46:24.491Z,19.00
2023-07-17T21:48:52.178Z,18.92
2023-07-17T21:51:21.419Z,18.89
2023-07-17T21:53:49.267Z,18.81
2023-07-17T21:56:17.909Z,18.69
2023-07-17T21:58:46.923Z,18.71
2023-07-17T22:01:14.778Z,18.73
2023-07-17T22:03:42.893Z,18.65
2023-07-17T22:06:10.652Z,18.52
2023-07-17T22:08:38.327Z,18.29
2023-07-17T22:11:05.957Z,18.35
2023-07-17T22:13:36.024Z,18.30
2023-07-17T22:16:05.554Z,18.28
2023-07-17T22:18:33.401Z,18.25
2023-07-17T22:21:01.349Z,18.16
2023-07-17T22:23:29.378Z,18.22
2023-07-17T22:25:57.122Z,18.07
2023-07-17T22:28:24.951Z,18.08
2023-07-17T22:30:52.672Z,18.02
2023-07-17T22:33:21.707Z,17.95
2023-07-17T22:35:49.400Z,17.86
2023-07-17T22:38:17.002Z,17.87
2023-07-17T22:40:44.868Z,17.86
2023-07-17T22:43:13.897Z,17.85
2023-07-17T22:45:42.702Z,17.85
2023-07-17T22:48:10.457Z,17.93
2023-07-17T22:50:39.558Z,17.77
2023-07-17T22:53:07.176Z,17.79
2023-07-17T22:55:35.383Z,17.81
2023-07-17T22:58:03.263Z,17.75
2023-07-17T23:00:31.175Z,17.88
2023-07-17T23:02:58.953Z,17.74
2023-07-17T23:05:26.864Z,17.70
2023-07-17T23:07:56.191Z,17.57
2023-07-17T23:10:23.927Z,17.56
2023-07-17T23:12:51.610Z,17.55
2023-07-17T23:15:19.506Z,17.53
2023-07-17T23:17:48.601Z,17.47
2023-07-17T23:20:17.991Z,17.53
2023-07-17T23:22:46.965Z,17.56
2023-07-17T23:25:16.072Z,17.47
2023-07-17T23:27:43.719Z,17.60
2023-07-17T23:30:12.059Z,17.20
2023-07-17T23:32:39.965Z,16.98
2023-07-17T23:35:08.042Z,16.97
2023-07-17T23:37:35.815Z,16.92
2023-07-17T23:40:05.059Z,16.98
2023-07-17T23:42:34.157Z,16.94
2023-07-17T23:45:02.420Z,16.94
2023-07-17T23:47:30.709Z,16.93
2023-07-17T23:49:58.396Z,16.97
2023-07-17T23:52:26.074Z,17.04
2023-07-17T23:54:55.264Z,16.82
2023-07-17T23:57:22.948Z,16.74
2023-07-17T23:59:52.312Z,16.76
